sensor_id;sensor_type;location;lat;lon;timestamp;P1;durP1;ratioP1;P2;durP2;ratioP2
6614;SDS011;3343;42.896;23.912;2023-03-23T00:00:48;21.27;;;8.83;;
6614;SDS011;3343;42.896;23.912;2023-03-23T00:03:15;15.83;;;7.97;;
6614;SDS011;3343;42.896;23.912;2023-03-23T00:05:43;11.20;;;8.00;;
6614;SDS011;3343;42.896;23.912;2023-03-23T00:08:16;12.67;;;7.60;;
6614;SDS011;3343;42.896;23.912;2023-03-23T00:10:43;16.17;;;8.83;;
6614;SDS011;3343;42.896;23.912;2023-03-23T00:13:10;11.40;;;7.43;;
6614;SDS011;3343;42.896;23.912;2023-03-23T00:15:38;14.47;;;7.70;;
6614;SDS011;3343;42.896;23.912;2023-03-23T00:18:06;14.07;;;7.70;;
6614;SDS011;3343;42.896;23.912;2023-03-23T00:20:33;17.73;;;8.13;;
6614;SDS011;3343;42.896;23.912;2023-03-23T00:23:08;14.27;;;9.23;;
6614;SDS011;3343;42.896;23.912;2023-03-23T00:25:34;16.23;;;8.93;;
6614;SDS011;3343;42.896;23.912;2023-03-23T00:28:01;14.40;;;8.37;;
6614;SDS011;3343;42.896;23.912;2023-03-23T00:30:28;15.43;;;7.50;;
6614;SDS011;3343;42.896;23.912;2023-03-23T00:32:56;14.13;;;7.40;;
6614;SDS011;3343;42.896;23.912;2023-03-23T00:35:23;12.63;;;7.67;;
6614;SDS011;3343;42.896;23.912;2023-03-23T00:37:50;13.50;;;7.93;;
6614;SDS011;3343;42.896;23.912;2023-03-23T00:40:18;14.33;;;7.97;;
6614;SDS011;3343;42.896;23.912;2023-03-23T00:42:45;20.33;;;10.03;;
6614;SDS011;3343;42.896;23.912;2023-03-23T00:45:13;12.30;;;7.83;;
6614;SDS011;3343;42.896;23.912;2023-03-23T00:47:40;14.03;;;7.70;;
6614;SDS011;3343;42.896;23.912;2023-03-23T00:50:12;10.50;;;5.80;;
6614;SDS011;3343;42.896;23.912;2023-03-23T00:52:39;14.00;;;7.07;;
6614;SDS011;3343;42.896;23.912;2023-03-23T00:55:06;16.77;;;7.13;;
6614;SDS011;3343;42.896;23.912;2023-03-23T00:57:35;10.90;;;6.70;;
6614;SDS011;3343;42.896;23.912;2023-03-23T01:00:02;13.13;;;5.80;;
6614;SDS011;3343;42.896;23.912;2023-03-23T01:02:34;12.87;;;7.23;;
6614;SDS011;3343;42.896;23.912;2023-03-23T01:05:01;25.67;;;7.30;;
6614;SDS011;3343;42.896;23.912;2023-03-23T01:07:28;12.57;;;7.30;;
6614;SDS011;3343;42.896;23.912;2023-03-23T01:09:56;14.10;;;7.70;;
6614;SDS011;3343;42.896;23.912;2023-03-23T01:12:25;12.63;;;7.37;;
6614;SDS011;3343;42.896;23.912;2023-03-23T01:14:54;15.37;;;8.23;;
6614;SDS011;3343;42.896;23.912;2023-03-23T01:17:21;15.30;;;8.30;;
6614;SDS011;3343;42.896;23.912;2023-03-23T01:19:48;20.33;;;8.63;;
6614;SDS011;3343;42.896;23.912;2023-03-23T01:22:15;13.70;;;7.90;;
6614;SDS011;3343;42.896;23.912;2023-03-23T01:24:42;18.00;;;9.47;;
6614;SDS011;3343;42.896;23.912;2023-03-23T01:27:09;14.90;;;8.57;;
6614;SDS011;3343;42.896;23.912;2023-03-23T01:29:36;18.57;;;8.87;;
6614;SDS011;3343;42.896;23.912;2023-03-23T01:32:04;18.83;;;9.67;;
6614;SDS011;3343;42.896;23.912;2023-03-23T01:34:31;15.17;;;8.73;;
6614;SDS011;3343;42.896;23.912;2023-03-23T01:36:58;18.50;;;8.63;;
6614;SDS011;3343;42.896;23.912;2023-03-23T01:39:25;14.37;;;8.43;;
6614;SDS011;3343;42.896;23.912;2023-03-23T01:41:52;15.53;;;8.63;;
6614;SDS011;3343;42.896;23.912;2023-03-23T01:47:25;12.50;;;6.70;;
6614;SDS011;3343;42.896;23.912;2023-03-23T01:49:52;14.97;;;6.67;;
6614;SDS011;3343;42.896;23.912;2023-03-23T01:52:19;12.97;;;6.87;;
6614;SDS011;3343;42.896;23.912;2023-03-23T01:54:50;10.30;;;6.37;;
6614;SDS011;3343;42.896;23.912;2023-03-23T01:57:19;11.87;;;6.57;;
6614;SDS011;3343;42.896;23.912;2023-03-23T01:59:49;13.23;;;7.47;;
6614;SDS011;3343;42.896;23.912;2023-03-23T02:02:18;11.83;;;6.70;;
6614;SDS011;3343;42.896;23.912;2023-03-23T02:04:49;12.00;;;7.23;;
6614;SDS011;3343;42.896;23.912;2023-03-23T02:07:17;13.83;;;6.77;;
6614;SDS011;3343;42.896;23.912;2023-03-23T02:09:46;12.80;;;6.90;;
6614;SDS011;3343;42.896;23.912;2023-03-23T02:12:13;13.37;;;7.23;;
6614;SDS011;3343;42.896;23.912;2023-03-23T02:14:40;13.27;;;7.40;;
6614;SDS011;3343;42.896;23.912;2023-03-23T02:17:07;12.73;;;6.77;;
6614;SDS011;3343;42.896;23.912;2023-03-23T02:19:51;14.37;;;7.60;;
6614;SDS011;3343;42.896;23.912;2023-03-23T02:22:46;14.90;;;7.80;;
6614;SDS011;3343;42.896;23.912;2023-03-23T02:25:33;16.20;;;7.63;;
6614;SDS011;3343;42.896;23.912;2023-03-23T02:28:17;17.67;;;8.53;;
6614;SDS011;3343;42.896;23.912;2023-03-23T02:31:00;15.37;;;7.27;;
6614;SDS011;3343;42.896;23.912;2023-03-23T02:33:45;13.70;;;7.70;;
6614;SDS011;3343;42.896;23.912;2023-03-23T02:36:21;15.97;;;8.10;;
6614;SDS011;3343;42.896;23.912;2023-03-23T02:38:55;18.10;;;8.50;;
6614;SDS011;3343;42.896;23.912;2023-03-23T02:41:30;16.43;;;8.90;;
6614;SDS011;3343;42.896;23.912;2023-03-23T02:44:02;16.43;;;8.80;;
6614;SDS011;3343;42.896;23.912;2023-03-23T02:46:31;17.27;;;8.80;;
6614;SDS011;3343;42.896;23.912;2023-03-23T02:49:00;17.20;;;8.57;;
6614;SDS011;3343;42.896;23.912;2023-03-23T02:51:30;19.17;;;8.47;;
6614;SDS011;3343;42.896;23.912;2023-03-23T02:53:59;17.80;;;8.27;;
6614;SDS011;3343;42.896;23.912;2023-03-23T02:56:27;15.53;;;8.37;;
6614;SDS011;3343;42.896;23.912;2023-03-23T02:58:56;21.20;;;8.73;;
6614;SDS011;3343;42.896;23.912;2023-03-23T03:04:18;13.83;;;7.97;;
6614;SDS011;3343;42.896;23.912;2023-03-23T03:06:49;15.97;;;8.50;;
6614;SDS011;3343;42.896;23.912;2023-03-23T03:09:25;18.30;;;9.03;;
6614;SDS011;3343;42.896;23.912;2023-03-23T03:12:01;16.33;;;8.73;;
6614;SDS011;3343;42.896;23.912;2023-03-23T03:14:37;16.17;;;9.13;;
6614;SDS011;3343;42.896;23.912;2023-03-23T03:17:10;14.57;;;8.07;;
6614;SDS011;3343;42.896;23.912;2023-03-23T03:19:48;17.43;;;7.93;;
6614;SDS011;3343;42.896;23.912;2023-03-23T03:22:16;15.37;;;7.97;;
6614;SDS011;3343;42.896;23.912;2023-03-23T03:24:47;14.27;;;7.53;;
6614;SDS011;3343;42.896;23.912;2023-03-23T03:27:17;16.33;;;8.00;;
6614;SDS011;3343;42.896;23.912;2023-03-23T03:29:49;17.67;;;7.90;;
6614;SDS011;3343;42.896;23.912;2023-03-23T03:32:21;16.67;;;8.10;;
6614;SDS011;3343;42.896;23.912;2023-03-23T03:34:51;20.70;;;7.77;;
6614;SDS011;3343;42.896;23.912;2023-03-23T03:37:18;14.27;;;7.93;;
6614;SDS011;3343;42.896;23.912;2023-03-23T03:39:47;18.60;;;8.00;;
6614;SDS011;3343;42.896;23.912;2023-03-23T03:42:13;15.93;;;7.80;;
6614;SDS011;3343;42.896;23.912;2023-03-23T03:44:40;18.27;;;9.30;;
6614;SDS011;3343;42.896;23.912;2023-03-23T03:47:07;15.03;;;9.53;;
6614;SDS011;3343;42.896;23.912;2023-03-23T03:49:34;16.30;;;9.07;;
6614;SDS011;3343;42.896;23.912;2023-03-23T03:52:03;18.23;;;9.60;;
6614;SDS011;3343;42.896;23.912;2023-03-23T03:54:29;18.83;;;9.63;;
6614;SDS011;3343;42.896;23.912;2023-03-23T03:56:56;22.77;;;11.53;;
6614;SDS011;3343;42.896;23.912;2023-03-23T03:59:23;64.13;;;24.77;;
6614;SDS011;3343;42.896;23.912;2023-03-23T04:01:51;21.17;;;11.00;;
6614;SDS011;3343;42.896;23.912;2023-03-23T04:04:19;14.30;;;8.60;;
6614;SDS011;3343;42.896;23.912;2023-03-23T04:06:47;27.67;;;13.67;;
6614;SDS011;3343;42.896;23.912;2023-03-23T04:09:15;19.57;;;10.37;;
6614;SDS011;3343;42.896;23.912;2023-03-23T04:11:42;20.70;;;11.13;;
6614;SDS011;3343;42.896;23.912;2023-03-23T04:14:09;19.77;;;9.10;;
6614;SDS011;3343;42.896;23.912;2023-03-23T04:16:36;30.53;;;12.03;;
6614;SDS011;3343;42.896;23.912;2023-03-23T04:19:03;21.40;;;10.97;;
6614;SDS011;3343;42.896;23.912;2023-03-23T04:21:30;21.83;;;10.87;;
6614;SDS011;3343;42.896;23.912;2023-03-23T04:23:57;16.30;;;9.40;;
6614;SDS011;3343;42.896;23.912;2023-03-23T04:26:26;17.33;;;8.37;;
6614;SDS011;3343;42.896;23.912;2023-03-23T04:28:55;17.23;;;7.40;;
6614;SDS011;3343;42.896;23.912;2023-03-23T04:31:22;15.33;;;8.20;;
6614;SDS011;3343;42.896;23.912;2023-03-23T04:33:50;17.13;;;9.00;;
6614;SDS011;3343;42.896;23.912;2023-03-23T04:36:18;12.27;;;7.53;;
6614;SDS011;3343;42.896;23.912;2023-03-23T04:38:47;16.93;;;8.30;;
6614;SDS011;3343;42.896;23.912;2023-03-23T04:41:20;16.97;;;8.27;;
6614;SDS011;3343;42.896;23.912;2023-03-23T04:43:48;22.43;;;9.97;;
6614;SDS011;3343;42.896;23.912;2023-03-23T04:46:17;17.93;;;10.50;;
6614;SDS011;3343;42.896;23.912;2023-03-23T04:48:46;17.00;;;9.33;;
6614;SDS011;3343;42.896;23.912;2023-03-23T04:51:14;15.67;;;9.87;;
6614;SDS011;3343;42.896;23.912;2023-03-23T05:08:11;19.07;;;10.93;;
6614;SDS011;3343;42.896;23.912;2023-03-23T05:10:38;19.80;;;10.83;;
6614;SDS011;3343;42.896;23.912;2023-03-23T05:13:05;19.10;;;9.53;;
6614;SDS011;3343;42.896;23.912;2023-03-23T05:15:33;25.30;;;12.30;;
6614;SDS011;3343;42.896;23.912;2023-03-23T05:18:00;19.20;;;10.73;;
6614;SDS011;3343;42.896;23.912;2023-03-23T05:20:27;22.13;;;10.90;;
6614;SDS011;3343;42.896;23.912;2023-03-23T05:22:55;22.80;;;11.20;;
6614;SDS011;3343;42.896;23.912;2023-03-23T05:25:24;25.13;;;11.13;;
6614;SDS011;3343;42.896;23.912;2023-03-23T05:27:51;22.70;;;11.23;;
6614;SDS011;3343;42.896;23.912;2023-03-23T05:30:19;20.97;;;10.60;;
6614;SDS011;3343;42.896;23.912;2023-03-23T05:32:46;23.40;;;11.47;;
6614;SDS011;3343;42.896;23.912;2023-03-23T05:35:15;21.17;;;10.70;;
6614;SDS011;3343;42.896;23.912;2023-03-23T05:37:43;23.80;;;10.77;;
6614;SDS011;3343;42.896;23.912;2023-03-23T05:40:10;18.60;;;8.87;;
6614;SDS011;3343;42.896;23.912;2023-03-23T05:42:39;20.83;;;9.63;;
6614;SDS011;3343;42.896;23.912;2023-03-23T05:45:07;20.67;;;8.90;;
6614;SDS011;3343;42.896;23.912;2023-03-23T05:47:36;19.17;;;9.40;;
6614;SDS011;3343;42.896;23.912;2023-03-23T05:50:03;19.10;;;8.97;;
6614;SDS011;3343;42.896;23.912;2023-03-23T05:52:32;18.27;;;8.67;;
6614;SDS011;3343;42.896;23.912;2023-03-23T05:55:00;15.87;;;9.13;;
6614;SDS011;3343;42.896;23.912;2023-03-23T05:57:28;17.03;;;9.37;;
6614;SDS011;3343;42.896;23.912;2023-03-23T05:59:57;23.83;;;12.77;;
6614;SDS011;3343;42.896;23.912;2023-03-23T06:15:44;17.37;;;9.57;;
6614;SDS011;3343;42.896;23.912;2023-03-23T06:18:10;13.83;;;7.60;;
6614;SDS011;3343;42.896;23.912;2023-03-23T06:20:38;13.40;;;7.37;;
6614;SDS011;3343;42.896;23.912;2023-03-23T06:23:05;13.90;;;7.27;;
6614;SDS011;3343;42.896;23.912;2023-03-23T06:25:33;13.73;;;7.13;;
6614;SDS011;3343;42.896;23.912;2023-03-23T06:28:00;13.93;;;7.77;;
6614;SDS011;3343;42.896;23.912;2023-03-23T06:30:28;13.67;;;7.33;;
6614;SDS011;3343;42.896;23.912;2023-03-23T06:32:57;14.37;;;8.13;;
6614;SDS011;3343;42.896;23.912;2023-03-23T06:35:24;13.43;;;7.83;;
6614;SDS011;3343;42.896;23.912;2023-03-23T06:37:51;11.93;;;7.53;;
6614;SDS011;3343;42.896;23.912;2023-03-23T06:40:18;11.73;;;7.17;;
6614;SDS011;3343;42.896;23.912;2023-03-23T06:42:46;11.00;;;6.43;;
6614;SDS011;3343;42.896;23.912;2023-03-23T06:45:13;17.10;;;8.50;;
6614;SDS011;3343;42.896;23.912;2023-03-23T06:47:40;13.37;;;7.27;;
6614;SDS011;3343;42.896;23.912;2023-03-23T06:50:10;11.50;;;7.43;;
6614;SDS011;3343;42.896;23.912;2023-03-23T06:52:37;12.47;;;6.43;;
6614;SDS011;3343;42.896;23.912;2023-03-23T06:55:04;10.80;;;6.17;;
6614;SDS011;3343;42.896;23.912;2023-03-23T06:57:32;13.13;;;7.10;;
6614;SDS011;3343;42.896;23.912;2023-03-23T06:59:59;9.37;;;6.43;;
6614;SDS011;3343;42.896;23.912;2023-03-23T07:02:26;11.43;;;6.77;;
6614;SDS011;3343;42.896;23.912;2023-03-23T07:04:54;9.70;;;6.90;;
6614;SDS011;3343;42.896;23.912;2023-03-23T07:07:23;10.07;;;6.67;;
6614;SDS011;3343;42.896;23.912;2023-03-23T07:09:50;11.93;;;7.20;;
6614;SDS011;3343;42.896;23.912;2023-03-23T07:12:16;12.33;;;7.33;;
6614;SDS011;3343;42.896;23.912;2023-03-23T07:14:43;10.90;;;7.33;;
6614;SDS011;3343;42.896;23.912;2023-03-23T07:17:11;11.13;;;6.77;;
6614;SDS011;3343;42.896;23.912;2023-03-23T07:19:38;11.10;;;7.47;;
6614;SDS011;3343;42.896;23.912;2023-03-23T07:22:05;12.57;;;7.50;;
6614;SDS011;3343;42.896;23.912;2023-03-23T07:24:34;11.87;;;7.30;;
6614;SDS011;3343;42.896;23.912;2023-03-23T07:27:01;14.40;;;8.07;;
6614;SDS011;3343;42.896;23.912;2023-03-23T07:29:28;14.60;;;8.10;;
6614;SDS011;3343;42.896;23.912;2023-03-23T07:31:56;15.10;;;7.07;;
6614;SDS011;3343;42.896;23.912;2023-03-23T07:34:23;13.43;;;8.00;;
6614;SDS011;3343;42.896;23.912;2023-03-23T07:36:49;18.83;;;9.70;;
6614;SDS011;3343;42.896;23.912;2023-03-23T07:39:16;11.53;;;6.97;;
6614;SDS011;3343;42.896;23.912;2023-03-23T07:41:44;23.53;;;11.20;;
6614;SDS011;3343;42.896;23.912;2023-03-23T07:44:11;13.70;;;8.30;;
6614;SDS011;3343;42.896;23.912;2023-03-23T07:46:38;13.13;;;7.30;;
6614;SDS011;3343;42.896;23.912;2023-03-23T07:49:07;12.20;;;7.40;;
6614;SDS011;3343;42.896;23.912;2023-03-23T07:51:34;12.50;;;7.20;;
6614;SDS011;3343;42.896;23.912;2023-03-23T07:55:10;10.57;;;5.93;;
6614;SDS011;3343;42.896;23.912;2023-03-23T07:57:42;13.30;;;7.37;;
6614;SDS011;3343;42.896;23.912;2023-03-23T08:00:09;11.33;;;6.37;;
6614;SDS011;3343;42.896;23.912;2023-03-23T08:02:41;12.40;;;7.00;;
6614;SDS011;3343;42.896;23.912;2023-03-23T08:05:08;12.10;;;6.47;;
6614;SDS011;3343;42.896;23.912;2023-03-23T08:07:35;10.60;;;6.60;;
6614;SDS011;3343;42.896;23.912;2023-03-23T08:10:02;10.57;;;6.23;;
6614;SDS011;3343;42.896;23.912;2023-03-23T08:12:31;9.87;;;5.63;;
6614;SDS011;3343;42.896;23.912;2023-03-23T08:14:58;10.47;;;5.90;;
6614;SDS011;3343;42.896;23.912;2023-03-23T08:17:25;12.77;;;6.47;;
6614;SDS011;3343;42.896;23.912;2023-03-23T08:19:52;31.20;;;12.67;;
6614;SDS011;3343;42.896;23.912;2023-03-23T08:22:19;19.43;;;8.23;;
6614;SDS011;3343;42.896;23.912;2023-03-23T08:24:47;10.83;;;6.00;;
6614;SDS011;3343;42.896;23.912;2023-03-23T08:27:14;10.83;;;6.30;;
6614;SDS011;3343;42.896;23.912;2023-03-23T08:29:43;9.73;;;5.57;;
6614;SDS011;3343;42.896;23.912;2023-03-23T08:32:11;10.27;;;6.13;;
6614;SDS011;3343;42.896;23.912;2023-03-23T08:34:38;10.87;;;6.27;;
6614;SDS011;3343;42.896;23.912;2023-03-23T08:37:06;7.87;;;5.33;;
6614;SDS011;3343;42.896;23.912;2023-03-23T08:39:33;10.23;;;5.70;;
6614;SDS011;3343;42.896;23.912;2023-03-23T08:41:59;8.90;;;5.57;;
6614;SDS011;3343;42.896;23.912;2023-03-23T08:44:27;8.47;;;5.43;;
6614;SDS011;3343;42.896;23.912;2023-03-23T08:46:55;9.80;;;5.70;;
6614;SDS011;3343;42.896;23.912;2023-03-23T08:49:22;10.13;;;6.23;;
6614;SDS011;3343;42.896;23.912;2023-03-23T08:51:51;10.03;;;5.23;;
6614;SDS011;3343;42.896;23.912;2023-03-23T08:54:17;10.60;;;5.43;;
6614;SDS011;3343;42.896;23.912;2023-03-23T08:56:44;11.63;;;6.00;;
6614;SDS011;3343;42.896;23.912;2023-03-23T08:59:11;8.97;;;5.07;;
6614;SDS011;3343;42.896;23.912;2023-03-23T09:01:38;8.57;;;5.57;;
6614;SDS011;3343;42.896;23.912;2023-03-23T09:04:07;7.67;;;5.63;;
6614;SDS011;3343;42.896;23.912;2023-03-23T09:06:35;8.97;;;5.57;;
6614;SDS011;3343;42.896;23.912;2023-03-23T09:09:03;8.73;;;5.10;;
6614;SDS011;3343;42.896;23.912;2023-03-23T09:11:32;10.70;;;6.03;;
6614;SDS011;3343;42.896;23.912;2023-03-23T09:13:59;10.03;;;5.83;;
6614;SDS011;3343;42.896;23.912;2023-03-23T09:16:26;8.23;;;5.30;;
6614;SDS011;3343;42.896;23.912;2023-03-23T09:18:53;11.40;;;5.77;;
6614;SDS011;3343;42.896;23.912;2023-03-23T09:21:23;7.13;;;5.20;;
6614;SDS011;3343;42.896;23.912;2023-03-23T09:23:50;10.80;;;5.73;;
6614;SDS011;3343;42.896;23.912;2023-03-23T09:26:17;9.27;;;5.03;;
6614;SDS011;3343;42.896;23.912;2023-03-23T09:28:44;9.80;;;5.00;;
6614;SDS011;3343;42.896;23.912;2023-03-23T09:31:11;10.17;;;5.53;;
6614;SDS011;3343;42.896;23.912;2023-03-23T09:33:38;15.53;;;4.30;;
6614;SDS011;3343;42.896;23.912;2023-03-23T09:36:05;9.63;;;5.47;;
6614;SDS011;3343;42.896;23.912;2023-03-23T09:38:38;5.47;;;3.57;;
6614;SDS011;3343;42.896;23.912;2023-03-23T09:41:10;6.03;;;4.77;;
6614;SDS011;3343;42.896;23.912;2023-03-23T09:43:59;9.03;;;5.07;;
6614;SDS011;3343;42.896;23.912;2023-03-23T09:46:44;7.17;;;3.70;;
6614;SDS011;3343;42.896;23.912;2023-03-23T09:49:21;8.03;;;4.70;;
6614;SDS011;3343;42.896;23.912;2023-03-23T09:51:51;6.90;;;4.07;;
6614;SDS011;3343;42.896;23.912;2023-03-23T09:54:23;7.80;;;4.23;;
6614;SDS011;3343;42.896;23.912;2023-03-23T09:56:54;7.90;;;4.97;;
6614;SDS011;3343;42.896;23.912;2023-03-23T09:59:23;8.40;;;4.70;;
6614;SDS011;3343;42.896;23.912;2023-03-23T10:01:55;6.30;;;3.60;;
6614;SDS011;3343;42.896;23.912;2023-03-23T10:04:30;6.63;;;3.57;;
6614;SDS011;3343;42.896;23.912;2023-03-23T10:07:09;6.63;;;3.90;;
6614;SDS011;3343;42.896;23.912;2023-03-23T10:09:40;5.27;;;3.53;;
6614;SDS011;3343;42.896;23.912;2023-03-23T10:12:14;7.87;;;4.37;;
6614;SDS011;3343;42.896;23.912;2023-03-23T10:14:56;7.30;;;4.33;;
6614;SDS011;3343;42.896;23.912;2023-03-23T10:17:33;4.20;;;3.37;;
6614;SDS011;3343;42.896;23.912;2023-03-23T10:20:09;6.83;;;3.80;;
6614;SDS011;3343;42.896;23.912;2023-03-23T10:22:47;7.20;;;4.50;;
6614;SDS011;3343;42.896;23.912;2023-03-23T10:25:21;8.23;;;4.43;;
6614;SDS011;3343;42.896;23.912;2023-03-23T10:27:52;4.80;;;3.57;;
6614;SDS011;3343;42.896;23.912;2023-03-23T10:30:27;7.13;;;3.70;;
6614;SDS011;3343;42.896;23.912;2023-03-23T10:32:58;6.07;;;3.60;;
6614;SDS011;3343;42.896;23.912;2023-03-23T10:35:29;6.37;;;3.80;;
6614;SDS011;3343;42.896;23.912;2023-03-23T10:38:03;4.73;;;3.57;;
6614;SDS011;3343;42.896;23.912;2023-03-23T10:40:43;5.23;;;3.70;;
6614;SDS011;3343;42.896;23.912;2023-03-23T10:43:14;5.63;;;3.83;;
6614;SDS011;3343;42.896;23.912;2023-03-23T10:45:41;4.47;;;3.30;;
6614;SDS011;3343;42.896;23.912;2023-03-23T10:48:13;4.93;;;3.53;;
6614;SDS011;3343;42.896;23.912;2023-03-23T10:50:45;6.67;;;3.67;;
6614;SDS011;3343;42.896;23.912;2023-03-23T10:53:18;5.57;;;3.40;;
6614;SDS011;3343;42.896;23.912;2023-03-23T10:55:48;5.97;;;3.83;;
6614;SDS011;3343;42.896;23.912;2023-03-23T10:58:22;6.13;;;3.70;;
6614;SDS011;3343;42.896;23.912;2023-03-23T11:00:50;5.50;;;3.30;;
6614;SDS011;3343;42.896;23.912;2023-03-23T11:03:22;6.27;;;3.37;;
6614;SDS011;3343;42.896;23.912;2023-03-23T11:05:55;4.43;;;3.27;;
6614;SDS011;3343;42.896;23.912;2023-03-23T11:08:24;8.33;;;3.93;;
6614;SDS011;3343;42.896;23.912;2023-03-23T11:10:54;5.37;;;3.43;;
6614;SDS011;3343;42.896;23.912;2023-03-23T11:13:26;4.97;;;3.40;;
6614;SDS011;3343;42.896;23.912;2023-03-23T11:15:56;7.80;;;3.93;;
6614;SDS011;3343;42.896;23.912;2023-03-23T11:18:23;6.10;;;3.97;;
6614;SDS011;3343;42.896;23.912;2023-03-23T11:20:52;6.17;;;3.53;;
6614;SDS011;3343;42.896;23.912;2023-03-23T11:23:22;6.53;;;3.97;;
6614;SDS011;3343;42.896;23.912;2023-03-23T11:25:55;6.50;;;3.97;;
6614;SDS011;3343;42.896;23.912;2023-03-23T11:28:29;6.40;;;3.70;;
6614;SDS011;3343;42.896;23.912;2023-03-23T11:30:59;6.67;;;3.93;;
6614;SDS011;3343;42.896;23.912;2023-03-23T11:33:34;7.53;;;3.87;;
6614;SDS011;3343;42.896;23.912;2023-03-23T11:36:04;5.70;;;3.80;;
6614;SDS011;3343;42.896;23.912;2023-03-23T11:38:33;6.40;;;3.63;;
6614;SDS011;3343;42.896;23.912;2023-03-23T11:41:08;5.73;;;3.70;;
6614;SDS011;3343;42.896;23.912;2023-03-23T11:43:39;5.87;;;4.27;;
6614;SDS011;3343;42.896;23.912;2023-03-23T11:46:10;8.10;;;4.17;;
6614;SDS011;3343;42.896;23.912;2023-03-23T11:48:47;5.70;;;3.70;;
6614;SDS011;3343;42.896;23.912;2023-03-23T11:51:21;7.37;;;4.10;;
6614;SDS011;3343;42.896;23.912;2023-03-23T11:53:57;6.60;;;3.83;;
6614;SDS011;3343;42.896;23.912;2023-03-23T11:56:31;7.17;;;4.30;;
6614;SDS011;3343;42.896;23.912;2023-03-23T11:59:01;6.43;;;3.90;;
6614;SDS011;3343;42.896;23.912;2023-03-23T12:01:39;5.87;;;3.73;;
6614;SDS011;3343;42.896;23.912;2023-03-23T12:04:19;5.53;;;3.60;;
6614;SDS011;3343;42.896;23.912;2023-03-23T12:07:06;5.87;;;3.80;;
6614;SDS011;3343;42.896;23.912;2023-03-23T12:09:44;5.60;;;3.50;;
6614;SDS011;3343;42.896;23.912;2023-03-23T12:12:18;6.60;;;3.57;;
6614;SDS011;3343;42.896;23.912;2023-03-23T12:14:56;7.57;;;3.70;;
6614;SDS011;3343;42.896;23.912;2023-03-23T12:17:31;6.27;;;3.57;;
6614;SDS011;3343;42.896;23.912;2023-03-23T12:20:13;6.17;;;3.30;;
6614;SDS011;3343;42.896;23.912;2023-03-23T12:22:53;8.93;;;4.20;;
6614;SDS011;3343;42.896;23.912;2023-03-23T12:25:38;6.13;;;3.70;;
6614;SDS011;3343;42.896;23.912;2023-03-23T12:28:21;7.07;;;4.07;;
6614;SDS011;3343;42.896;23.912;2023-03-23T12:30:57;6.83;;;4.40;;
6614;SDS011;3343;42.896;23.912;2023-03-23T12:33:33;9.93;;;3.53;;
6614;SDS011;3343;42.896;23.912;2023-03-23T12:36:17;6.30;;;3.93;;
6614;SDS011;3343;42.896;23.912;2023-03-23T12:38:57;8.53;;;3.90;;
6614;SDS011;3343;42.896;23.912;2023-03-23T12:41:45;4.83;;;3.27;;
6614;SDS011;3343;42.896;23.912;2023-03-23T12:44:18;5.90;;;4.10;;
6614;SDS011;3343;42.896;23.912;2023-03-23T12:46:57;6.03;;;3.43;;
6614;SDS011;3343;42.896;23.912;2023-03-23T12:49:35;5.13;;;3.67;;
6614;SDS011;3343;42.896;23.912;2023-03-23T12:52:09;5.83;;;3.73;;
6614;SDS011;3343;42.896;23.912;2023-03-23T12:54:42;9.57;;;4.03;;
6614;SDS011;3343;42.896;23.912;2023-03-23T12:57:19;5.53;;;3.77;;
6614;SDS011;3343;42.896;23.912;2023-03-23T12:59:58;6.37;;;3.80;;
6614;SDS011;3343;42.896;23.912;2023-03-23T13:02:39;5.20;;;3.43;;
6614;SDS011;3343;42.896;23.912;2023-03-23T13:05:10;4.43;;;3.27;;
6614;SDS011;3343;42.896;23.912;2023-03-23T13:07:53;6.83;;;4.37;;
6614;SDS011;3343;42.896;23.912;2023-03-23T13:10:29;11.33;;;3.67;;
6614;SDS011;3343;42.896;23.912;2023-03-23T13:13:00;7.13;;;3.70;;
6614;SDS011;3343;42.896;23.912;2023-03-23T13:15:31;7.33;;;4.27;;
6614;SDS011;3343;42.896;23.912;2023-03-23T13:18:07;6.20;;;3.97;;
6614;SDS011;3343;42.896;23.912;2023-03-23T13:20:45;5.73;;;4.10;;
6614;SDS011;3343;42.896;23.912;2023-03-23T13:23:21;5.30;;;3.63;;
6614;SDS011;3343;42.896;23.912;2023-03-23T13:25:51;6.77;;;3.87;;
6614;SDS011;3343;42.896;23.912;2023-03-23T13:28:23;5.33;;;3.30;;
6614;SDS011;3343;42.896;23.912;2023-03-23T13:30:58;3.97;;;2.80;;
6614;SDS011;3343;42.896;23.912;2023-03-23T13:33:29;7.47;;;3.73;;
6614;SDS011;3343;42.896;23.912;2023-03-23T13:36:01;6.30;;;3.73;;
6614;SDS011;3343;42.896;23.912;2023-03-23T13:38:35;4.97;;;3.50;;
6614;SDS011;3343;42.896;23.912;2023-03-23T13:41:10;6.13;;;4.17;;
6614;SDS011;3343;42.896;23.912;2023-03-23T13:43:39;6.03;;;3.13;;
6614;SDS011;3343;42.896;23.912;2023-03-23T13:46:11;5.87;;;3.33;;
6614;SDS011;3343;42.896;23.912;2023-03-23T13:48:50;5.17;;;3.67;;
6614;SDS011;3343;42.896;23.912;2023-03-23T13:51:33;5.80;;;3.40;;
6614;SDS011;3343;42.896;23.912;2023-03-23T13:54:12;4.70;;;3.53;;
6614;SDS011;3343;42.896;23.912;2023-03-23T13:56:42;3.77;;;2.90;;
6614;SDS011;3343;42.896;23.912;2023-03-23T13:59:14;5.00;;;2.63;;
6614;SDS011;3343;42.896;23.912;2023-03-23T14:01:44;5.50;;;3.53;;
6614;SDS011;3343;42.896;23.912;2023-03-23T14:04:12;5.10;;;2.83;;
6614;SDS011;3343;42.896;23.912;2023-03-23T14:06:41;5.97;;;3.17;;
6614;SDS011;3343;42.896;23.912;2023-03-23T14:09:11;4.90;;;3.20;;
6614;SDS011;3343;42.896;23.912;2023-03-23T14:11:50;4.13;;;2.93;;
6614;SDS011;3343;42.896;23.912;2023-03-23T14:14:23;4.63;;;3.10;;
6614;SDS011;3343;42.896;23.912;2023-03-23T14:17:04;4.50;;;3.13;;
6614;SDS011;3343;42.896;23.912;2023-03-23T14:19:32;4.97;;;3.10;;
6614;SDS011;3343;42.896;23.912;2023-03-23T14:22:00;3.77;;;3.00;;
6614;SDS011;3343;42.896;23.912;2023-03-23T14:24:29;4.60;;;3.10;;
6614;SDS011;3343;42.896;23.912;2023-03-23T14:27:01;4.03;;;3.10;;
6614;SDS011;3343;42.896;23.912;2023-03-23T14:29:34;4.57;;;2.70;;
6614;SDS011;3343;42.896;23.912;2023-03-23T14:32:04;5.00;;;3.57;;
6614;SDS011;3343;42.896;23.912;2023-03-23T14:34:32;5.73;;;3.00;;
6614;SDS011;3343;42.896;23.912;2023-03-23T14:37:01;8.70;;;3.03;;
6614;SDS011;3343;42.896;23.912;2023-03-23T14:39:29;3.40;;;2.77;;
6614;SDS011;3343;42.896;23.912;2023-03-23T14:42:00;4.07;;;2.77;;
6614;SDS011;3343;42.896;23.912;2023-03-23T14:44:30;4.13;;;2.83;;
6614;SDS011;3343;42.896;23.912;2023-03-23T14:47:00;6.40;;;3.23;;
6614;SDS011;3343;42.896;23.912;2023-03-23T14:49:32;4.97;;;3.20;;
6614;SDS011;3343;42.896;23.912;2023-03-23T14:52:07;4.10;;;3.10;;
6614;SDS011;3343;42.896;23.912;2023-03-23T14:54:36;5.03;;;3.20;;
6614;SDS011;3343;42.896;23.912;2023-03-23T14:57:12;4.33;;;3.17;;
6614;SDS011;3343;42.896;23.912;2023-03-23T14:59:41;5.13;;;3.53;;
6614;SDS011;3343;42.896;23.912;2023-03-23T15:02:13;6.07;;;3.47;;
6614;SDS011;3343;42.896;23.912;2023-03-23T15:04:44;7.30;;;3.77;;
6614;SDS011;3343;42.896;23.912;2023-03-23T15:07:14;5.70;;;3.27;;
6614;SDS011;3343;42.896;23.912;2023-03-23T15:09:43;5.10;;;3.30;;
6614;SDS011;3343;42.896;23.912;2023-03-23T15:12:20;7.13;;;3.73;;
6614;SDS011;3343;42.896;23.912;2023-03-23T15:14:52;8.10;;;3.47;;
6614;SDS011;3343;42.896;23.912;2023-03-23T15:17:22;4.27;;;3.10;;
6614;SDS011;3343;42.896;23.912;2023-03-23T15:19:51;4.07;;;3.37;;
6614;SDS011;3343;42.896;23.912;2023-03-23T15:22:21;6.37;;;3.50;;
6614;SDS011;3343;42.896;23.912;2023-03-23T15:24:51;6.83;;;3.57;;
6614;SDS011;3343;42.896;23.912;2023-03-23T15:27:23;5.30;;;3.60;;
6614;SDS011;3343;42.896;23.912;2023-03-23T15:29:53;6.40;;;3.23;;
6614;SDS011;3343;42.896;23.912;2023-03-23T15:32:25;4.27;;;3.47;;
6614;SDS011;3343;42.896;23.912;2023-03-23T15:34:54;5.23;;;3.03;;
6614;SDS011;3343;42.896;23.912;2023-03-23T15:37:25;6.80;;;3.07;;
6614;SDS011;3343;42.896;23.912;2023-03-23T15:39:54;4.73;;;3.10;;
6614;SDS011;3343;42.896;23.912;2023-03-23T15:42:24;5.83;;;3.43;;
6614;SDS011;3343;42.896;23.912;2023-03-23T15:45:15;6.23;;;3.63;;
6614;SDS011;3343;42.896;23.912;2023-03-23T15:47:49;5.87;;;3.50;;